Time;durP1;ratioP1;P1;durP2;ratioP2;P2;SDS_P1;SDS_P2;PMS_P1;PMS_P2;Temp;Humidity;BMP_temperature;BMP_pressure;BME280_temperature;BME280_humidity;BME280_pressure;Samples;Min_cycle;Max_cycle;Signal;HPM_P1;HPM_P2
2021/09/07 00:00:58;;;;;;;15.68;9.28;;;;;;;10.22;100.00;100234.36;1639710;85;21127;-71
2021/09/07 00:03:26;;;;;;;14.13;9.05;;;;;;;10.21;100.00;100236.55;1638821;86;20956;-71
2021/09/07 00:05:54;;;;;;;17.30;8.73;;;;;;;10.20;100.00;100238.30;1616768;86;21057;-71
2021/09/07 00:08:25;;;;;;;13.78;8.75;;;;;;;10.19;100.00;100236.50;1618209;86;21578;-72
2021/09/07 00:10:55;;;;;;;17.42;9.28;;;;;;;10.17;100.00;100235.59;1630507;86;21510;-72
2021/09/07 00:13:26;;;;;;;17.98;9.48;;;;;;;10.15;100.00;100236.01;1613301;88;21567;-72
2021/09/07 00:15:55;;;;;;;12.18;6.58;;;;;;;10.13;100.00;100231.15;1652479;84;22080;-72
2021/09/07 00:18:28;;;;;;;17.87;9.03;;;;;;;10.12;100.00;100235.08;1627999;86;21514;-72
2021/09/07 00:20:57;;;;;;;14.90;8.65;;;;;;;10.09;100.00;100228.91;1629033;86;21513;-72
2021/09/07 00:23:26;;;;;;;16.50;8.85;;;;;;;10.07;100.00;100233.70;1630928;86;21031;-72
2021/09/07 00:25:55;;;;;;;13.80;8.50;;;;;;;10.02;100.00;100232.77;1622162;86;21318;-72
2021/09/07 00:28:23;;;;;;;14.60;8.60;;;;;;;9.99;100.00;100236.67;1603924;86;20960;-72
2021/09/07 00:30:52;;;;;;;15.48;8.93;;;;;;;9.96;100.00;100232.68;1621713;87;21494;-73
2021/09/07 00:33:20;;;;;;;17.20;8.33;;;;;;;9.94;100.00;100233.98;1631903;85;21609;-73
2021/09/07 00:35:49;;;;;;;15.93;8.70;;;;;;;9.92;100.00;100233.03;1644141;85;21507;-72
2021/09/07 00:38:18;;;;;;;14.80;8.65;;;;;;;9.90;100.00;100228.61;1662526;84;21109;-71
2021/09/07 00:40:46;;;;;;;15.68;9.18;;;;;;;9.89;100.00;100231.67;1625013;87;20959;-72
2021/09/07 00:43:14;;;;;;;15.83;8.60;;;;;;;9.88;100.00;100236.92;1660905;85;20964;-72
2021/09/07 00:45:45;;;;;;;16.87;8.65;;;;;;;9.86;100.00;100234.70;1649204;85;20963;-72
2021/09/07 00:48:15;;;;;;;13.10;8.33;;;;;;;9.83;100.00;100226.32;1666029;85;21407;-72
2021/09/07 00:50:44;;;;;;;15.05;8.38;;;;;;;9.81;100.00;100225.84;1644156;86;22093;-70
2021/09/07 00:53:13;;;;;;;13.45;8.35;;;;;;;9.78;100.00;100220.98;1643500;85;21467;-72
2021/09/07 00:55:40;;;;;;;15.08;7.95;;;;;;;9.77;100.00;100227.55;1616511;87;20900;-71
2021/09/07 00:58:08;;;;;;;15.65;8.78;;;;;;;9.74;100.00;100223.13;1611144;88;20892;-71
2021/09/07 01:00:36;;;;;;;15.63;8.53;;;;;;;9.72;100.00;100223.53;1616520;87;20963;-71
2021/09/07 01:03:07;;;;;;;14.95;8.83;;;;;;;9.71;100.00;100219.56;1615777;87;22019;-72
2021/09/07 01:05:39;;;;;;;13.83;8.10;;;;;;;9.68;100.00;100224.79;1616210;87;21500;-72
2021/09/07 01:08:08;;;;;;;14.50;8.98;;;;;;;9.66;100.00;100218.61;1616869;87;20917;-71
2021/09/07 01:10:36;;;;;;;12.63;7.70;;;;;;;9.64;100.00;100219.91;1615277;87;20980;-72
2021/09/07 01:13:08;;;;;;;12.53;7.75;;;;;;;9.64;100.00;100221.23;1615571;87;20922;-71
2021/09/07 01:15:37;;;;;;;11.60;7.65;;;;;;;9.66;100.00;100218.19;1628838;85;21122;-72
2021/09/07 01:18:06;;;;;;;16.73;8.78;;;;;;;9.65;100.00;100224.75;1657508;85;21427;-73
2021/09/07 01:20:35;;;;;;;13.05;8.23;;;;;;;9.62;100.00;100223.38;1669533;84;20972;-73
2021/09/07 01:23:04;;;;;;;16.67;8.48;;;;;;;9.58;100.00;100217.19;1657597;86;21556;-71
2021/09/07 01:25:32;;;;;;;14.47;8.80;;;;;;;9.54;100.00;100221.07;1669967;85;20952;-73
2021/09/07 01:28:02;;;;;;;17.50;8.38;;;;;;;9.49;100.00;100222.31;1657350;85;21515;-74
2021/09/07 01:30:32;;;;;;;13.55;7.92;;;;;;;9.43;100.00;100213.86;1655316;85;21066;-73
2021/09/07 01:33:00;;;;;;;13.15;8.08;;;;;;;9.39;100.00;100218.62;1658389;85;20849;-72
2021/09/07 01:35:28;;;;;;;15.48;7.72;;;;;;;9.35;100.00;100215.92;1658328;85;21503;-72
2021/09/07 01:37:57;;;;;;;13.43;7.80;;;;;;;9.30;100.00;100213.64;1658403;85;20924;-72
2021/09/07 01:40:26;;;;;;;15.70;8.60;;;;;;;9.26;100.00;100220.61;1658520;85;21076;-70
2021/09/07 01:42:57;;;;;;;13.80;7.30;;;;;;;9.22;100.00;100212.64;1642273;86;20884;-70
2021/09/07 01:45:26;;;;;;;12.73;7.28;;;;;;;9.18;100.00;100220.91;1670248;85;20955;-70
2021/09/07 01:47:55;;;;;;;14.13;7.37;;;;;;;9.15;100.00;100220.44;1658283;85;20904;-70
2021/09/07 01:50:24;;;;;;;11.12;6.92;;;;;;;9.15;100.00;100220.87;1644859;86;21651;-71
2021/09/07 01:52:54;;;;;;;13.43;7.25;;;;;;;9.15;100.00;100226.13;1632811;87;20950;-70
2021/09/07 01:55:29;;;;;;;12.93;7.00;;;;;;;9.14;100.00;100220.41;1665794;85;21460;-71
2021/09/07 01:57:59;;;;;;;13.15;7.00;;;;;;;9.11;100.00;100226.94;1669753;85;21428;-71
2021/09/07 02:00:28;;;;;;;16.60;8.60;;;;;;;9.08;100.00;100222.94;1658178;85;20856;-71
2021/09/07 02:02:57;;;;;;;25.40;10.23;;;;;;;9.04;100.00;100219.80;1668681;85;20984;-71
2021/09/07 02:05:26;;;;;;;26.70;11.33;;;;;;;8.97;100.00;100220.09;1657014;85;21108;-70
2021/09/07 02:07:55;;;;;;;19.05;9.40;;;;;;;8.94;100.00;100218.73;1656897;86;20900;-71
2021/09/07 02:10:25;;;;;;;23.85;10.72;;;;;;;8.90;100.00;100218.64;1656984;86;20996;-71
2021/09/07 02:12:55;;;;;;;26.77;10.93;;;;;;;8.90;100.00;100218.64;1627151;88;21499;-70
2021/09/07 02:15:25;;;;;;;17.98;9.40;;;;;;;8.87;100.00;100221.22;1653845;85;21419;-70
2021/09/07 02:17:55;;;;;;;22.02;9.48;;;;;;;8.83;100.00;100219.86;1652727;86;21109;-66
2021/09/07 02:20:26;;;;;;;19.65;8.98;;;;;;;8.80;100.00;100217.59;1657411;85;21455;-66
2021/09/07 02:22:57;;;;;;;12.10;7.25;;;;;;;8.76;100.00;100210.52;1656530;86;20928;-66
2021/09/07 02:25:29;;;;;;;12.23;6.37;;;;;;;8.73;100.00;100212.66;1658500;85;20987;-67
2021/09/07 02:27:59;;;;;;;10.32;5.90;;;;;;;8.68;100.00;100207.74;1658680;85;21459;-67
2021/09/07 02:30:29;;;;;;;13.22;5.85;;;;;;;8.65;100.00;100206.80;1658496;86;21459;-65
2021/09/07 02:32:59;;;;;;;10.63;5.80;;;;;;;8.62;100.00;100208.06;1657539;85;20932;-66
2021/09/07 02:35:30;;;;;;;10.40;5.65;;;;;;;8.59;100.00;100207.58;1656890;86;20956;-65
2021/09/07 02:37:59;;;;;;;10.10;5.95;;;;;;;8.56;100.00;100212.78;1657391;86;20968;-66
2021/09/07 02:40:27;;;;;;;11.40;5.12;;;;;;;8.53;100.00;100209.20;1656907;86;20920;-65
2021/09/07 02:42:57;;;;;;;10.90;6.08;;;;;;;8.49;100.00;100210.86;1657337;85;21503;-66
2021/09/07 02:45:25;;;;;;;14.07;6.50;;;;;;;8.45;100.00;100215.17;1658237;85;20908;-65
2021/09/07 02:47:55;;;;;;;15.10;6.58;;;;;;;8.41;100.00;100212.45;1658306;86;20951;-64
2021/09/07 02:50:26;;;;;;;8.78;5.72;;;;;;;8.40;100.00;100212.00;1658526;85;21028;-70
2021/09/07 02:52:55;;;;;;;10.90;5.97;;;;;;;8.40;100.00;100221.20;1632173;86;20974;-71
2021/09/07 02:55:24;;;;;;;10.70;6.40;;;;;;;8.39;100.00;100219.00;1655059;85;21546;-70
2021/09/07 02:57:53;;;;;;;12.47;5.37;;;;;;;8.35;100.00;100223.73;1687361;85;20895;-70
2021/09/07 03:00:24;;;;;;;8.88;4.97;;;;;;;8.32;100.00;100222.75;1658353;85;21503;-70
2021/09/07 03:02:53;;;;;;;11.00;4.97;;;;;;;8.31;100.00;100224.92;1658561;85;21427;-70
2021/09/07 03:05:22;;;;;;;10.48;4.92;;;;;;;8.27;100.00;100223.09;1658298;85;21448;-63
2021/09/07 03:07:51;;;;;;;8.23;4.92;;;;;;;8.24;100.00;100223.03;1658564;85;21439;-64
2021/09/07 03:10:19;;;;;;;7.70;4.67;;;;;;;8.21;100.00;100219.91;1659642;85;20952;-65
2021/09/07 03:12:49;;;;;;;7.80;5.17;;;;;;;8.20;100.00;100226.02;1657649;85;21432;-65
2021/09/07 03:15:17;;;;;;;7.78;4.83;;;;;;;8.17;100.00;100225.53;1659985;86;21019;-67
2021/09/07 03:17:46;;;;;;;7.50;4.67;;;;;;;8.15;100.00;100231.19;1626656;86;21039;-73
2021/09/07 03:20:16;;;;;;;8.35;4.78;;;;;;;8.11;100.00;100224.52;1611202;88;21085;-63
2021/09/07 03:22:44;;;;;;;9.63;5.08;;;;;;;8.10;100.00;100231.95;1647475;85;21570;-66
2021/09/07 03:25:13;;;;;;;9.20;4.58;;;;;;;8.07;100.00;100235.40;1642591;85;20975;-73
2021/09/07 03:27:41;;;;;;;8.48;4.30;;;;;;;8.05;100.00;100227.91;1687990;84;21004;-73
2021/09/07 03:30:10;;;;;;;7.70;4.50;;;;;;;8.06;100.00;100232.31;1653178;86;20979;-68
2021/09/07 03:32:39;;;;;;;12.07;4.55;;;;;;;8.05;100.00;100227.91;1654378;86;20908;-73
2021/09/07 03:35:08;;;;;;;7.35;4.85;;;;;;;8.04;100.00;100230.47;1662344;85;20888;-68
2021/09/07 03:37:37;;;;;;;8.95;4.50;;;;;;;8.03;100.00;100230.90;1665989;85;20935;-66
2021/09/07 03:40:07;;;;;;;7.92;4.15;;;;;;;8.04;100.00;100232.70;1657705;85;20919;-65
2021/09/07 03:42:36;;;;;;;7.92;4.87;;;;;;;8.04;100.00;100231.39;1656774;85;21492;-66
2021/09/07 03:45:11;;;;;;;10.38;4.65;;;;;;;8.05;100.00;100241.05;1652430;86;21471;-70
2021/09/07 03:47:42;;;;;;;7.78;4.53;;;;;;;8.05;100.00;100233.59;1652632;86;20885;-69
2021/09/07 03:50:12;;;;;;;6.40;4.40;;;;;;;8.03;100.00;100232.21;1654189;85;21472;-70
2021/09/07 03:52:43;;;;;;;8.15;4.72;;;;;;;8.04;100.00;100233.09;1633991;86;21464;-69
2021/09/07 03:55:13;;;;;;;7.00;4.17;;;;;;;8.02;100.00;100234.38;1651471;86;20988;-70
2021/09/07 03:57:45;;;;;;;8.20;4.40;;;;;;;8.02;100.00;100238.75;1661973;84;23028;-69
2021/09/07 04:00:13;;;;;;;6.40;4.20;;;;;;;8.01;100.00;100238.30;1664003;86;20915;-69
2021/09/07 04:02:46;;;;;;;6.92;4.33;;;;;;;8.04;100.00;100237.96;1656910;85;20912;-69
2021/09/07 04:05:12;;;;;;;6.95;4.20;;;;;;;8.07;100.00;100241.08;1654166;85;20909;-70
2021/09/07 04:07:44;;;;;;;8.50;4.83;;;;;;;8.08;100.00;100245.48;1634609;86;20984;-70
2021/09/07 04:10:15;;;;;;;13.60;5.12;;;;;;;8.09;100.00;100238.95;1652572;86;22030;-70
2021/09/07 04:12:47;;;;;;;13.18;4.72;;;;;;;8.14;100.00;100249.55;1657836;84;20893;-70
2021/09/07 04:15:16;;;;;;;6.20;4.58;;;;;;;8.17;100.00;100246.56;1651537;86;21008;-70
2021/09/07 04:17:44;;;;;;;9.28;5.03;;;;;;;8.23;100.00;100248.43;1630102;86;20943;-70
2021/09/07 04:20:13;;;;;;;10.65;5.15;;;;;;;8.28;100.00;100253.36;1619881;87;20968;-70
2021/09/07 04:22:41;;;;;;;13.20;6.15;;;;;;;8.33;100.00;100253.45;1619991;87;21045;-70
2021/09/07 04:25:11;;;;;;;11.45;4.78;;;;;;;8.40;100.00;100254.06;1624259;87;20920;-70
2021/09/07 04:27:46;;;;;;;12.28;5.15;;;;;;;8.47;100.00;100261.22;1624646;87;20920;-70
2021/09/07 04:30:15;;;;;;;10.95;4.97;;;;;;;8.55;100.00;100260.97;1620260;88;21000;-70
2021/09/07 04:32:46;;;;;;;77.05;10.23;;;;;;;8.63;100.00;100263.32;1615902;87;20944;-71
2021/09/07 04:35:15;;;;;;;12.58;5.78;;;;;;;8.68;100.00;100255.52;1615790;87;21122;-70
2021/09/07 04:37:47;;;;;;;14.05;5.45;;;;;;;8.76;100.00;100259.18;1615932;88;21493;-70
2021/09/07 04:40:16;;;;;;;8.43;5.03;;;;;;;8.79;100.00;100261.44;1615774;88;20972;-70
2021/09/07 04:42:44;;;;;;;11.60;5.80;;;;;;;8.80;100.00;100259.27;1615873;88;20996;-70
2021/09/07 04:45:16;;;;;;;12.95;5.58;;;;;;;8.83;100.00;100258.44;1615621;88;20897;-70
2021/09/07 04:47:46;;;;;;;11.78;6.00;;;;;;;8.83;100.00;100258.44;1614963;88;21456;-70
2021/09/07 04:50:17;;;;;;;10.85;5.67;;;;;;;8.83;100.00;100261.95;1615641;87;21471;-70
2021/09/07 04:52:46;;;;;;;13.78;6.10;;;;;;;8.84;100.00;100257.58;1615908;88;21466;-70
2021/09/07 04:55:20;;;;;;;10.45;6.30;;;;;;;8.89;100.00;100257.23;1615631;88;20924;-69
2021/09/07 04:57:44;;;;;;;14.18;6.58;;;;;;;8.95;100.00;100259.08;1615436;88;20989;-70
2021/09/07 05:00:14;;;;;;;12.95;6.80;;;;;;;8.99;100.00;100257.89;1615644;87;21081;-70
2021/09/07 05:02:42;;;;;;;12.45;6.78;;;;;;;9.04;100.00;100265.86;1615806;87;21432;-71
2021/09/07 05:05:11;;;;;;;11.38;6.30;;;;;;;9.09;100.00;100262.88;1615659;87;20913;-71
2021/09/07 05:07:39;;;;;;;9.65;5.62;;;;;;;9.12;100.00;100265.13;1615806;88;20948;-70
2021/09/07 05:10:09;;;;;;;10.05;5.72;;;;;;;9.16;100.00;100263.44;1615881;87;20941;-71
2021/09/07 05:12:38;;;;;;;12.28;6.00;;;;;;;9.21;100.00;100267.47;1615638;87;21975;-70
2021/09/07 05:15:08;;;;;;;26.50;6.25;;;;;;;9.27;100.00;100265.83;1615902;87;20933;-70
2021/09/07 05:17:38;;;;;;;9.10;5.53;;;;;;;9.34;100.00;100266.81;1644193;85;21416;-71
2021/09/07 05:20:07;;;;;;;10.15;5.92;;;;;;;9.41;100.00;100268.69;1664237;85;20911;-71
2021/09/07 05:22:35;;;;;;;26.15;6.15;;;;;;;9.45;100.00;100266.12;1664289;86;20955;-71
2021/09/07 05:25:05;;;;;;;10.35;5.17;;;;;;;9.51;100.00;100269.32;1664311;86;21110;-71
2021/09/07 05:27:35;;;;;;;10.88;5.50;;;;;;;9.56;100.00;100274.66;1660660;86;20962;-71
2021/09/07 05:30:06;;;;;;;8.25;5.12;;;;;;;9.61;100.00;100270.34;1657436;85;21447;-71
2021/09/07 05:32:35;;;;;;;6.90;4.97;;;;;;;9.64;100.00;100273.03;1657072;86;20872;-71
2021/09/07 05:35:04;;;;;;;8.80;5.00;;;;;;;9.67;100.00;100272.64;1657299;86;20919;-71
2021/09/07 05:37:38;;;;;;;8.18;4.78;;;;;;;9.71;100.00;100269.20;1657066;86;21499;-71
2021/09/07 05:40:09;;;;;;;7.12;4.15;;;;;;;9.81;100.00;100266.27;1657052;86;20904;-71
2021/09/07 05:42:38;;;;;;;10.70;4.53;;;;;;;9.94;100.00;100273.95;1657434;86;21483;-71
2021/09/07 05:45:06;;;;;;;8.43;4.62;;;;;;;10.05;100.00;100270.59;1657008;86;20940;-71
2021/09/07 05:47:33;;;;;;;6.45;4.00;;;;;;;10.16;100.00;100273.38;1657525;85;20924;-71
2021/09/07 05:50:01;;;;;;;9.30;4.55;;;;;;;10.26;100.00;100267.82;1657325;85;21120;-71
2021/09/07 05:52:30;;;;;;;8.10;4.72;;;;;;;10.36;100.00;100271.02;1657222;86;21506;-70
2021/09/07 05:54:59;;;;;;;8.10;4.35;;;;;;;10.48;100.00;100275.16;1657072;85;21008;-71
2021/09/07 05:57:28;;;;;;;8.23;4.22;;;;;;;10.58;100.00;100269.12;1657298;86;21529;-71
2021/09/07 05:59:55;;;;;;;60.52;7.75;;;;;;;10.66;100.00;100271.42;1657061;86;20952;-71
2021/09/07 06:02:23;;;;;;;9.45;4.55;;;;;;;10.79;100.00;100272.88;1657284;86;21762;-71
2021/09/07 06:04:50;;;;;;;8.45;4.22;;;;;;;10.89;100.00;100266.42;1657014;86;20912;-71
2021/09/07 06:07:18;;;;;;;7.45;3.87;;;;;;;11.04;100.00;100265.25;1657490;85;20951;-71
2021/09/07 06:09:46;;;;;;;7.15;4.03;;;;;;;11.18;100.00;100264.06;1657273;85;21470;-71
2021/09/07 06:12:15;;;;;;;6.37;3.72;;;;;;;11.32;100.00;100263.73;1657342;86;21440;-71
2021/09/07 06:14:43;;;;;;;5.03;3.25;;;;;;;11.48;100.00;100270.50;1657068;85;20861;-71
2021/09/07 06:17:13;;;;;;;7.83;3.60;;;;;;;11.64;100.00;100269.75;1659130;85;20947;-71
2021/09/07 06:19:41;;;;;;;5.95;3.30;;;;;;;11.81;100.00;100261.53;1664447;86;20916;-71
2021/09/07 06:22:10;;;;;;;5.87;3.10;;;;;;;11.97;100.00;100262.10;1661654;85;20865;-71
2021/09/07 06:24:38;;;;;;;4.40;3.33;;;;;;;12.13;100.00;100259.54;1650453;86;21467;-71
2021/09/07 06:27:05;;;;;;;102.17;10.08;;;;;;;12.29;100.00;100260.94;1650655;87;21792;-70
2021/09/07 06:29:33;;;;;;;6.15;3.30;;;;;;;12.46;100.00;100265.02;1656127;86;21479;-71
2021/09/07 06:32:01;;;;;;;4.35;3.00;;;;;;;12.61;100.00;100253.59;1639228;86;21014;-70
2021/09/07 06:34:28;;;;;;;31.57;4.22;;;;;;;12.74;100.00;100265.10;1652455;86;20952;-71
2021/09/07 06:36:56;;;;;;;7.80;3.15;;;;;;;12.87;100.00;100264.29;1658142;86;20963;-71
2021/09/07 06:39:24;;;;;;;52.50;5.97;;;;;;;13.00;100.00;100259.45;1654885;85;21108;-71
2021/09/07 06:41:52;;;;;;;7.03;2.98;;;;;;;13.12;100.00;100262.56;1623929;88;20896;-71
2021/09/07 06:44:19;;;;;;;11.05;4.35;;;;;;;13.22;100.00;100261.28;1614976;88;20952;-71
2021/09/07 06:46:46;;;;;;;7.62;3.10;;;;;;;13.37;100.00;100270.16;1662780;86;20947;-71
2021/09/07 06:49:14;;;;;;;9.50;2.90;;;;;;;13.52;100.00;100268.38;1664687;86;20915;-71
2021/09/07 06:51:42;;;;;;;6.75;2.87;;;;;;;13.66;100.00;100276.33;1661295;85;21967;-71
2021/09/07 06:54:12;;;;;;;9.00;3.15;;;;;;;13.78;100.00;100278.12;1651894;86;21455;-71
2021/09/07 06:56:42;;;;;;;51.37;6.60;;;;;;;13.91;100.00;100273.67;1652754;86;20952;-71
2021/09/07 06:59:09;;;;;;;7.15;3.10;;;;;;;14.04;100.00;100274.97;1662934;86;21511;-71
2021/09/07 07:01:37;;;;;;;61.95;5.70;;;;;;;14.20;100.00;100278.50;1664723;85;20967;-71
2021/09/07 07:04:05;;;;;;;4.55;3.10;;;;;;;14.36;100.00;100274.91;1659587;86;21942;-71
2021/09/07 07:06:34;;;;;;;6.60;2.98;;;;;;;14.49;100.00;100284.63;1652468;87;20897;-71
2021/09/07 07:09:01;;;;;;;6.87;2.92;;;;;;;14.60;100.00;100285.91;1658451;84;20928;-71
2021/09/07 07:11:30;;;;;;;5.33;2.70;;;;;;;14.70;100.00;100283.67;1625925;88;20900;-71
2021/09/07 07:13:59;;;;;;;5.03;2.85;;;;;;;14.81;100.00;100287.61;1610896;88;20905;-70
2021/09/07 07:16:27;;;;;;;5.47;2.72;;;;;;;14.93;100.00;100290.19;1660743;84;21155;-70
2021/09/07 07:18:55;;;;;;;6.78;2.50;;;;;;;15.06;100.00;100294.98;1653160;86;21400;-71
2021/09/07 07:21:23;;;;;;;5.33;2.50;;;;;;;15.20;100.00;100294.48;1655016;85;20904;-71
2021/09/07 07:23:50;;;;;;;3.98;2.35;;;;;;;15.35;100.00;100296.15;1661707;86;20979;-71
2021/09/07 07:26:17;;;;;;;43.63;5.90;;;;;;;15.51;100.00;100286.27;1657133;85;21440;-71
2021/09/07 07:28:45;;;;;;;6.10;2.50;;;;;;;15.63;99.05;100293.77;1659512;86;21099;-71
2021/09/07 07:31:12;;;;;;;6.20;2.72;;;;;;;15.76;98.08;100293.66;1659488;86;21400;-71
2021/09/07 07:33:40;;;;;;;7.67;2.22;;;;;;;15.88;95.07;100293.55;1659352;85;20940;-71
2021/09/07 07:36:10;;;;;;;6.50;2.20;;;;;;;15.99;90.80;100293.88;1659495;86;21471;-71
2021/09/07 07:38:38;;;;;;;3.80;2.00;;;;;;;16.07;87.32;100288.47;1657404;85;21103;-71
2021/09/07 07:41:05;;;;;;;4.28;2.30;;;;;;;16.16;83.83;100294.19;1657146;85;21205;-70
2021/09/07 07:43:43;;;;;;;12.82;2.20;;;;;;;16.25;82.22;100302.07;1659462;86;21492;-70
2021/09/07 07:46:05;;;;;;;4.33;2.20;;;;;;;16.34;79.95;100300.64;1660650;85;20932;-70
2021/09/07 07:48:32;;;;;;;5.15;2.50;;;;;;;16.45;78.90;100296.06;1661640;86;20900;-70
2021/09/07 07:51:00;;;;;;;3.50;1.82;;;;;;;16.56;76.55;100291.52;1661447;85;21483;-70
2021/09/07 07:53:27;;;;;;;3.30;2.00;;;;;;;16.67;74.65;100302.96;1657201;85;21092;-70
2021/09/07 07:55:55;;;;;;;3.50;2.02;;;;;;;16.89;71.34;100298.68;1659896;86;21462;-70
2021/09/07 07:58:22;;;;;;;5.22;1.90;;;;;;;16.89;71.34;100298.68;1661648;85;20912;-70
2021/09/07 08:00:49;;;;;;;5.37;2.20;;;;;;;16.96;69.68;100290.58;1661410;85;20956;-71
2021/09/07 08:03:17;;;;;;;6.33;2.25;;;;;;;17.06;68.83;100297.14;1657073;85;21443;-70
2021/09/07 08:05:50;;;;;;;24.57;3.15;;;;;;;17.17;67.95;100287.20;1659666;86;21083;-70
2021/09/07 08:08:14;;;;;;;8.35;2.10;;;;;;;17.26;66.60;100292.39;1660555;86;20956;-70
2021/09/07 08:10:42;;;;;;;3.60;2.00;;;;;;;17.35;65.28;100296.70;1661453;85;20944;-70
2021/09/07 08:13:09;;;;;;;3.35;1.70;;;;;;;17.45;64.16;100294.33;1661646;86;21408;-70
2021/09/07 08:15:36;;;;;;;4.80;2.70;;;;;;;17.55;63.80;100289.30;1661427;86;20955;-70
2021/09/07 08:18:04;;;;;;;5.62;2.10;;;;;;;17.67;64.07;100293.59;1656020;85;21108;-70
2021/09/07 08:20:33;;;;;;;6.35;2.30;;;;;;;17.77;62.91;100297.86;1657014;86;20943;-70
2021/09/07 08:23:02;;;;;;;4.22;1.95;;;;;;;17.85;61.89;100296.81;1657403;86;20929;-70
2021/09/07 08:25:31;;;;;;;13.60;2.72;;;;;;;17.94;60.17;100297.11;1658634;86;20927;-70
2021/09/07 08:27:58;;;;;;;3.65;2.22;;;;;;;18.02;58.64;100302.34;1657287;85;20956;-70
2021/09/07 08:30:25;;;;;;;6.47;2.02;;;;;;;18.06;57.15;100296.03;1657359;86;21749;-70
2021/09/07 08:32:52;;;;;;;3.92;2.02;;;;;;;18.10;56.53;100299.08;1657043;86;20915;-69
2021/09/07 08:35:20;;;;;;;3.40;2.00;;;;;;;18.15;55.90;100296.74;1657352;85;20904;-70
2021/09/07 08:37:48;;;;;;;3.58;2.17;;;;;;;18.21;54.89;100303.30;1657096;86;20955;-70
2021/09/07 08:40:16;;;;;;;4.17;2.17;;;;;;;18.25;55.03;100295.66;1657411;86;21007;-69
2021/09/07 08:42:43;;;;;;;7.42;2.20;;;;;;;18.35;54.57;100289.68;1657345;85;21566;-71
2021/09/07 08:45:13;;;;;;;10.85;2.20;;;;;;;18.42;54.15;100291.77;1657172;86;20912;-70
2021/09/07 08:47:43;;;;;;;5.67;2.30;;;;;;;18.46;53.38;100286.83;1657131;85;20872;-70
2021/09/07 08:50:12;;;;;;;5.10;2.00;;;;;;;18.48;52.44;100287.67;1637027;86;20935;-69
2021/09/07 08:52:40;;;;;;;4.28;2.12;;;;;;;18.49;52.45;100287.64;1657349;85;20964;-70
2021/09/07 08:55:08;;;;;;;13.75;2.45;;;;;;;18.54;52.09;100279.08;1657692;85;21119;-71
2021/09/07 08:57:35;;;;;;;3.95;1.90;;;;;;;18.63;52.41;100287.39;1657016;86;20919;-70
2021/09/07 09:00:05;;;;;;;3.95;1.60;;;;;;;18.75;52.03;100279.57;1657335;86;20876;-69
2021/09/07 09:02:41;;;;;;;6.97;2.30;;;;;;;18.84;51.96;100278.91;1657081;86;20896;-70
2021/09/07 09:05:10;;;;;;;4.50;2.27;;;;;;;18.93;51.58;100276.98;1657352;86;20960;-70
2021/09/07 09:07:37;;;;;;;4.58;2.17;;;;;;;19.03;51.04;100277.20;1657054;85;21102;-69
2021/09/07 09:10:06;;;;;;;5.00;2.25;;;;;;;19.09;50.23;100271.25;1657256;86;20912;-70
2021/09/07 09:12:42;;;;;;;3.77;1.82;;;;;;;19.13;49.64;100274.73;1657099;85;21467;-70
2021/09/07 09:15:13;;;;;;;4.47;1.87;;;;;;;19.20;49.80;100277.69;1656982;85;20868;-70
2021/09/07 09:17:41;;;;;;;4.92;2.30;;;;;;;19.30;49.64;100275.21;1657031;84;20912;-70
2021/09/07 09:20:17;;;;;;;6.47;2.58;;;;;;;19.42;49.26;100278.09;1661383;84;21103;-70
2021/09/07 09:22:51;;;;;;;5.90;2.05;;;;;;;19.52;48.80;100267.58;1652177;86;20912;-69
2021/09/07 09:25:38;;;;;;;6.22;2.17;;;;;;;19.64;48.46;100274.45;1620235;88;20999;-69
2021/09/07 09:28:18;;;;;;;5.50;2.22;;;;;;;19.68;47.91;100271.66;1614034;88;20980;-69
2021/09/07 09:30:52;;;;;;;3.27;2.00;;;;;;;19.75;47.81;100269.70;1652577;86;21496;-70
2021/09/07 09:33:25;;;;;;;3.02;1.98;;;;;;;19.81;47.43;100263.73;1662578;86;21352;-69
2021/09/07 09:36:01;;;;;;;5.67;2.10;;;;;;;19.90;47.14;100266.66;1655954;85;20952;-69
2021/09/07 09:38:34;;;;;;;6.65;2.10;;;;;;;19.94;46.71;100278.16;1654958;86;20909;-69
2021/09/07 09:41:05;;;;;;;3.45;1.90;;;;;;;19.98;46.73;100261.97;1623386;88;20904;-69
2021/09/07 09:43:38;;;;;;;5.58;2.15;;;;;;;20.11;47.16;100263.39;1610458;88;20897;-69
2021/09/07 09:46:19;;;;;;;102.87;9.13;;;;;;;20.24;46.81;100262.59;1621928;88;21115;-70
2021/09/07 09:48:47;;;;;;;3.72;2.02;;;;;;;20.30;45.90;100265.10;1656610;85;20939;-70
2021/09/07 09:51:18;;;;;;;4.10;1.80;;;;;;;20.26;45.21;100256.73;1644163;86;20960;-70
2021/09/07 09:53:49;;;;;;;5.95;2.10;;;;;;;20.30;45.51;100253.05;1652512;86;20915;-69
2021/09/07 09:56:18;;;;;;;5.78;2.15;;;;;;;20.40;45.72;100256.41;1671590;85;20996;-69
2021/09/07 09:58:46;;;;;;;4.30;1.75;;;;;;;20.41;45.23;100251.47;1686198;84;21161;-70
2021/09/07 10:01:17;;;;;;;25.50;3.05;;;;;;;20.46;45.20;100245.51;1686377;85;20899;-69
2021/09/07 10:03:44;;;;;;;4.05;1.90;;;;;;;20.56;45.53;100251.48;1645716;86;20956;-69
2021/09/07 10:06:12;;;;;;;2.45;1.80;;;;;;;20.68;44.75;100251.11;1655218;85;20896;-69
2021/09/07 10:08:40;;;;;;;4.60;1.90;;;;;;;20.75;44.49;100252.22;1652770;86;20919;-68
2021/09/07 10:11:14;;;;;;;3.90;1.80;;;;;;;20.84;44.06;100254.24;1652963;86;21471;-69
2021/09/07 10:13:45;;;;;;;2.50;1.62;;;;;;;20.87;43.77;100246.98;1662010;85;20864;-69
2021/09/07 10:16:17;;;;;;;2.67;1.65;;;;;;;20.98;43.56;100245.30;1662271;86;20936;-70
2021/09/07 10:23:02;;;;;;;4.03;1.77;;;;;;;21.05;42.54;100246.41;1695584;84;20868;-70
2021/09/07 10:24:00;;;;;;;3.33;1.70;;;;;;;21.04;42.19;100247.79;1667554;84;21108;-69
2021/09/07 10:26:44;;;;;;;4.40;2.00;;;;;;;21.02;42.03;100247.84;1695826;84;20919;-69
2021/09/07 10:29:17;;;;;;;3.22;1.90;;;;;;;21.04;42.24;100243.77;1661818;86;20935;-69
2021/09/07 10:31:50;;;;;;;4.78;1.85;;;;;;;21.08;41.85;100244.09;1661956;85;20912;-69
2021/09/07 10:34:23;;;;;;;7.08;1.80;;;;;;;21.01;41.68;100233.14;1661603;86;20899;-70
2021/09/07 10:37:04;;;;;;;4.95;1.50;;;;;;;21.01;41.79;100238.50;1661055;85;21115;-69
2021/09/07 10:39:39;;;;;;;3.65;1.40;;;;;;;21.07;41.75;100234.28;1647516;86;20912;-69
2021/09/07 10:42:12;;;;;;;3.10;1.85;;;;;;;21.15;41.58;100226.86;1662086;86;20928;-68
2021/09/07 10:44:43;;;;;;;3.92;1.82;;;;;;;21.21;42.01;100225.33;1660023;86;21439;-70
2021/09/07 10:47:16;;;;;;;1.55;1.30;;;;;;;21.30;41.70;100225.09;1661833;86;21454;-70
2021/09/07 10:49:54;;;;;;;7.10;2.00;;;;;;;21.40;41.62;100225.66;1660421;85;21104;-70
2021/09/07 10:52:33;;;;;;;3.65;1.50;;;;;;;21.46;41.32;100228.61;1660069;85;20927;-69
2021/09/07 10:55:09;;;;;;;3.10;1.55;;;;;;;21.57;41.33;100221.94;1653360;86;21007;-70
2021/09/07 10:57:43;;;;;;;2.90;1.80;;;;;;;21.69;40.82;100229.58;1660321;86;20972;-70
2021/09/07 11:00:19;;;;;;;5.28;1.60;;;;;;;21.82;40.93;100221.13;1659942;86;20923;-70
2021/09/07 11:02:58;;;;;;;3.37;1.70;;;;;;;21.97;41.24;100226.83;1627727;86;21160;-69
2021/09/07 11:05:36;;;;;;;2.92;1.65;;;;;;;22.10;40.60;100223.27;1615046;87;20877;-70
2021/09/07 11:08:35;;;;;;;6.67;1.75;;;;;;;22.18;39.97;100236.42;1637818;87;21526;-69
2021/09/07 11:11:24;;;;;;;6.28;2.20;;;;;;;22.19;39.06;100226.09;1655554;86;20944;-69
2021/09/07 11:13:54;;;;;;;3.80;1.70;;;;;;;22.24;38.95;100212.05;1700919;84;20927;-68
2021/09/07 11:16:22;;;;;;;9.63;1.87;;;;;;;22.25;38.97;100219.17;1666568;84;20907;-68
2021/09/07 11:18:49;;;;;;;5.17;1.90;;;;;;;22.35;39.28;100212.98;1666477;84;20959;-68
2021/09/07 11:21:17;;;;;;;6.60;1.95;;;;;;;22.48;39.26;100221.00;1649762;86;20876;-69
2021/09/07 11:23:44;;;;;;;3.27;1.85;;;;;;;22.53;38.98;100210.47;1654920;86;20945;-70
2021/09/07 11:26:13;;;;;;;3.20;1.60;;;;;;;22.59;39.20;100212.05;1655078;85;20944;-70
2021/09/07 11:28:47;;;;;;;3.33;1.70;;;;;;;22.65;38.85;100205.09;1624700;87;21107;-69
2021/09/07 11:31:15;;;;;;;4.47;2.08;;;;;;;22.69;38.21;100200.47;1610789;88;20961;-61
2021/09/07 11:33:43;;;;;;;4.05;1.70;;;;;;;22.73;38.23;100205.70;1619442;87;21404;-61